sensor_id;sensor_type;location;lat;lon;timestamp;temperature;humidity
5415;DHT22;2730;51.512;7.504;2022-09-20T05:02:40;9.50;99.90
5415;DHT22;2730;51.512;7.504;2022-09-20T05:05:45;9.60;99.90
5415;DHT22;2730;51.512;7.504;2022-09-20T05:11:59;9.60;99.90
5415;DHT22;2730;51.512;7.504;2022-09-20T05:17:50;9.60;99.90
5415;DHT22;2730;51.512;7.504;2022-09-20T05:20:37;9.70;99.90
5415;DHT22;2730;51.512;7.504;2022-09-20T05:26:13;9.70;99.90
5415;DHT22;2730;51.512;7.504;2022-09-20T05:28:49;9.80;99.90
5415;DHT22;2730;51.512;7.504;2022-09-20T05:31:25;9.80;99.90
5415;DHT22;2730;51.512;7.504;2022-09-20T05:34:04;9.80;99.90
5415;DHT22;2730;51.512;7.504;2022-09-20T05:36:40;9.90;99.90
5415;DHT22;2730;51.512;7.504;2022-09-20T05:39:21;10.00;99.90
5415;DHT22;2730;51.512;7.504;2022-09-20T05:41:56;10.00;99.90
5415;DHT22;2730;51.512;7.504;2022-09-20T05:44:30;10.00;99.90
5415;DHT22;2730;51.512;7.504;2022-09-20T05:47:05;10.00;99.90
5415;DHT22;2730;51.512;7.504;2022-09-20T05:49:46;10.00;99.90
5415;DHT22;2730;51.512;7.504;2022-09-20T05:52:32;10.10;99.90
5415;DHT22;2730;51.512;7.504;2022-09-20T05:55:30;10.20;99.90
5415;DHT22;2730;51.512;7.504;2022-09-20T05:58:22;10.30;99.90
5415;DHT22;2730;51.512;7.504;2022-09-20T06:00:57;10.30;99.90
5415;DHT22;2730;51.512;7.504;2022-09-20T06:03:35;10.30;99.90
5415;DHT22;2730;51.512;7.504;2022-09-20T06:06:09;10.30;99.90
5415;DHT22;2730;51.512;7.504;2022-09-20T06:08:52;10.40;99.90
5415;DHT22;2730;51.512;7.504;2022-09-20T06:11:51;10.40;99.90
5415;DHT22;2730;51.512;7.504;2022-09-20T06:14:33;10.40;99.90
5415;DHT22;2730;51.512;7.504;2022-09-20T06:17:10;10.40;99.90
5415;DHT22;2730;51.512;7.504;2022-09-20T06:19:43;10.50;99.90
5415;DHT22;2730;51.512;7.504;2022-09-20T06:22:16;10.50;99.90
5415;DHT22;2730;51.512;7.504;2022-09-20T06:24:48;10.60;99.90
5415;DHT22;2730;51.512;7.504;2022-09-20T06:27:20;10.60;99.90
5415;DHT22;2730;51.512;7.504;2022-09-20T06:29:52;10.70;99.90
5415;DHT22;2730;51.512;7.504;2022-09-20T06:32:21;10.70;99.90
5415;DHT22;2730;51.512;7.504;2022-09-20T06:34:49;10.80;99.90
5415;DHT22;2730;51.512;7.504;2022-09-20T06:37:33;10.80;99.90
5415;DHT22;2730;51.512;7.504;2022-09-20T06:40:30;10.90;99.90
5415;DHT22;2730;51.512;7.504;2022-09-20T06:43:15;11.00;99.90
5415;DHT22;2730;51.512;7.504;2022-09-20T06:45:44;11.10;99.90
5415;DHT22;2730;51.512;7.504;2022-09-20T06:48:15;11.20;99.90
5415;DHT22;2730;51.512;7.504;2022-09-20T06:50:47;11.30;99.90
5415;DHT22;2730;51.512;7.504;2022-09-20T06:56:24;11.40;99.90
5415;DHT22;2730;51.512;7.504;2022-09-20T06:58:52;11.50;99.90
5415;DHT22;2730;51.512;7.504;2022-09-20T07:01:19;11.50;99.90
5415;DHT22;2730;51.512;7.504;2022-09-20T07:03:46;11.60;99.90
5415;DHT22;2730;51.512;7.504;2022-09-20T07:06:13;11.80;99.90
5415;DHT22;2730;51.512;7.504;2022-09-20T07:08:44;11.80;99.90
5415;DHT22;2730;51.512;7.504;2022-09-20T07:11:12;12.00;99.90
5415;DHT22;2730;51.512;7.504;2022-09-20T07:13:44;12.20;99.90
5415;DHT22;2730;51.512;7.504;2022-09-20T07:16:31;12.50;99.90
5415;DHT22;2730;51.512;7.504;2022-09-20T07:18:58;12.60;99.90
5415;DHT22;2730;51.512;7.504;2022-09-20T07:21:38;12.40;99.90
5415;DHT22;2730;51.512;7.504;2022-09-20T07:24:15;12.60;99.90
5415;DHT22;2730;51.512;7.504;2022-09-20T07:30:42;12.90;99.90
5415;DHT22;2730;51.512;7.504;2022-09-20T07:33:15;13.00;99.90
5415;DHT22;2730;51.512;7.504;2022-09-20T07:38:47;12.80;99.90
5415;DHT22;2730;51.512;7.504;2022-09-20T07:41:16;13.00;99.90
5415;DHT22;2730;51.512;7.504;2022-09-20T07:43:47;13.30;99.90
5415;DHT22;2730;51.512;7.504;2022-09-20T07:46:22;14.10;99.90
5415;DHT22;2730;51.512;7.504;2022-09-20T07:49:11;14.80;99.90
5415;DHT22;2730;51.512;7.504;2022-09-20T07:52:03;14.60;99.90
5415;DHT22;2730;51.512;7.504;2022-09-20T07:54:47;14.40;99.90
5415;DHT22;2730;51.512;7.504;2022-09-20T07:57:14;14.20;99.90
5415;DHT22;2730;51.512;7.504;2022-09-20T07:59:41;14.00;99.90
5415;DHT22;2730;51.512;7.504;2022-09-20T08:02:13;13.80;99.90
5415;DHT22;2730;51.512;7.504;2022-09-20T08:04:41;13.80;99.90
5415;DHT22;2730;51.512;7.504;2022-09-20T08:07:08;13.60;99.90
5415;DHT22;2730;51.512;7.504;2022-09-20T08:09:37;13.40;99.90
5415;DHT22;2730;51.512;7.504;2022-09-20T08:12:04;13.50;99.90
5415;DHT22;2730;51.512;7.504;2022-09-20T08:14:45;13.60;99.90
5415;DHT22;2730;51.512;7.504;2022-09-20T08:17:16;13.60;99.90
5415;DHT22;2730;51.512;7.504;2022-09-20T08:19:47;13.70;99.90
5415;DHT22;2730;51.512;7.504;2022-09-20T08:22:14;13.90;99.90
5415;DHT22;2730;51.512;7.504;2022-09-20T08:24:44;14.20;99.90
5415;DHT22;2730;51.512;7.504;2022-09-20T08:27:11;14.60;99.90
5415;DHT22;2730;51.512;7.504;2022-09-20T08:29:44;14.30;99.90
5415;DHT22;2730;51.512;7.504;2022-09-20T08:32:13;14.10;99.90
5415;DHT22;2730;51.512;7.504;2022-09-20T08:34:40;14.40;99.90
5415;DHT22;2730;51.512;7.504;2022-09-20T08:37:07;14.60;99.90
5415;DHT22;2730;51.512;7.504;2022-09-20T08:39:33;14.90;99.90
5415;DHT22;2730;51.512;7.504;2022-09-20T08:42:09;14.90;99.90
5415;DHT22;2730;51.512;7.504;2022-09-20T08:44:45;14.70;99.90
5415;DHT22;2730;51.512;7.504;2022-09-20T08:47:19;14.60;99.90
5415;DHT22;2730;51.512;7.504;2022-09-20T08:49:47;14.90;99.90
5415;DHT22;2730;51.512;7.504;2022-09-20T08:52:17;15.90;99.90
5415;DHT22;2730;51.512;7.504;2022-09-20T08:54:44;16.50;99.90
5415;DHT22;2730;51.512;7.504;2022-09-20T08:57:14;16.40;99.90
5415;DHT22;2730;51.512;7.504;2022-09-20T08:59:41;15.90;99.90
5415;DHT22;2730;51.512;7.504;2022-09-20T09:02:14;15.60;99.90
5415;DHT22;2730;51.512;7.504;2022-09-20T09:04:43;15.80;99.90
5415;DHT22;2730;51.512;7.504;2022-09-20T09:07:11;16.30;99.90
5415;DHT22;2730;51.512;7.504;2022-09-20T09:09:41;16.60;99.90
5415;DHT22;2730;51.512;7.504;2022-09-20T09:12:16;17.30;99.90
5415;DHT22;2730;51.512;7.504;2022-09-20T09:14:44;17.00;99.90
5415;DHT22;2730;51.512;7.504;2022-09-20T09:17:15;16.90;99.90
5415;DHT22;2730;51.512;7.504;2022-09-20T09:19:46;17.20;99.90
5415;DHT22;2730;51.512;7.504;2022-09-20T09:22:18;17.40;99.90
5415;DHT22;2730;51.512;7.504;2022-09-20T09:25:05;16.90;99.90
5415;DHT22;2730;51.512;7.504;2022-09-20T09:27:33;16.20;99.90
5415;DHT22;2730;51.512;7.504;2022-09-20T09:30:01;15.90;99.90
5415;DHT22;2730;51.512;7.504;2022-09-20T09:32:44;15.60;99.90
5415;DHT22;2730;51.512;7.504;2022-09-20T09:35:24;15.60;99.90
5415;DHT22;2730;51.512;7.504;2022-09-20T09:37:56;15.90;99.90
5415;DHT22;2730;51.512;7.504;2022-09-20T09:40:23;16.20;99.90
5415;DHT22;2730;51.512;7.504;2022-09-20T09:42:52;16.90;99.90
5415;DHT22;2730;51.512;7.504;2022-09-20T09:45:33;17.00;99.90
5415;DHT22;2730;51.512;7.504;2022-09-20T09:48:17;17.80;99.90
5415;DHT22;2730;51.512;7.504;2022-09-20T09:50:45;18.40;99.90
5415;DHT22;2730;51.512;7.504;2022-09-20T09:53:15;18.30;99.90
5415;DHT22;2730;51.512;7.504;2022-09-20T09:56:11;17.40;99.90
5415;DHT22;2730;51.512;7.504;2022-09-20T09:58:50;17.30;99.90
5415;DHT22;2730;51.512;7.504;2022-09-20T10:01:28;16.80;99.90
5415;DHT22;2730;51.512;7.504;2022-09-20T10:04:02;16.40;99.90
5415;DHT22;2730;51.512;7.504;2022-09-20T10:06:41;16.20;99.90
5415;DHT22;2730;51.512;7.504;2022-09-20T10:09:27;15.90;99.90
5415;DHT22;2730;51.512;7.504;2022-09-20T10:12:13;15.70;99.90
5415;DHT22;2730;51.512;7.504;2022-09-20T10:14:53;15.80;99.90
5415;DHT22;2730;51.512;7.504;2022-09-20T10:17:33;16.10;99.90
5415;DHT22;2730;51.512;7.504;2022-09-20T10:20:20;15.90;99.90
5415;DHT22;2730;51.512;7.504;2022-09-20T10:22:58;16.60;99.90
5415;DHT22;2730;51.512;7.504;2022-09-20T10:25:37;17.70;99.90
5415;DHT22;2730;51.512;7.504;2022-09-20T10:28:17;19.10;99.90
5415;DHT22;2730;51.512;7.504;2022-09-20T10:30:52;19.50;99.90
5415;DHT22;2730;51.512;7.504;2022-09-20T10:33:31;19.80;99.90
5415;DHT22;2730;51.512;7.504;2022-09-20T10:36:14;19.40;99.90
5415;DHT22;2730;51.512;7.504;2022-09-20T10:38:52;19.30;99.90
5415;DHT22;2730;51.512;7.504;2022-09-20T10:41:36;19.20;99.90
5415;DHT22;2730;51.512;7.504;2022-09-20T10:44:42;18.90;99.90
5415;DHT22;2730;51.512;7.504;2022-09-20T10:47:15;18.40;99.90
5415;DHT22;2730;51.512;7.504;2022-09-20T10:49:53;18.10;99.90
5415;DHT22;2730;51.512;7.504;2022-09-20T10:52:41;17.80;99.90
5415;DHT22;2730;51.512;7.504;2022-09-20T10:55:25;17.10;99.90
5415;DHT22;2730;51.512;7.504;2022-09-20T11:01:03;15.70;99.90
5415;DHT22;2730;51.512;7.504;2022-09-20T11:03:44;15.90;99.90
5415;DHT22;2730;51.512;7.504;2022-09-20T11:06:18;16.10;99.90
5415;DHT22;2730;51.512;7.504;2022-09-20T11:08:52;16.30;99.90
5415;DHT22;2730;51.512;7.504;2022-09-20T11:11:25;16.40;99.90
5415;DHT22;2730;51.512;7.504;2022-09-20T11:13:58;16.60;99.90
5415;DHT22;2730;51.512;7.504;2022-09-20T11:16:32;16.50;99.90
5415;DHT22;2730;51.512;7.504;2022-09-20T11:19:07;16.40;99.90
5415;DHT22;2730;51.512;7.504;2022-09-20T11:21:41;16.50;99.90
5415;DHT22;2730;51.512;7.504;2022-09-20T11:24:13;16.80;99.90
5415;DHT22;2730;51.512;7.504;2022-09-20T11:26:48;17.20;99.90
5415;DHT22;2730;51.512;7.504;2022-09-20T11:29:21;17.20;99.90
5415;DHT22;2730;51.512;7.504;2022-09-20T11:31:55;17.10;99.90
5415;DHT22;2730;51.512;7.504;2022-09-20T11:34:27;16.60;99.90
5415;DHT22;2730;51.512;7.504;2022-09-20T11:36:56;16.20;99.90
5415;DHT22;2730;51.512;7.504;2022-09-20T11:39:29;16.10;99.90
5415;DHT22;2730;51.512;7.504;2022-09-20T11:42:02;16.30;99.90
5415;DHT22;2730;51.512;7.504;2022-09-20T11:44:31;16.20;99.90
5415;DHT22;2730;51.512;7.504;2022-09-20T11:47:00;16.10;99.90
5415;DHT22;2730;51.512;7.504;2022-09-20T11:49:33;16.30;99.90
5415;DHT22;2730;51.512;7.504;2022-09-20T11:52:24;16.40;99.90
5415;DHT22;2730;51.512;7.504;2022-09-20T11:55:13;16.40;99.90
5415;DHT22;2730;51.512;7.504;2022-09-20T11:57:44;16.50;99.90
5415;DHT22;2730;51.512;7.504;2022-09-20T12:00:12;16.50;99.90
5415;DHT22;2730;51.512;7.504;2022-09-20T12:02:44;16.10;99.90
5415;DHT22;2730;51.512;7.504;2022-09-20T12:05:24;15.90;99.90
5415;DHT22;2730;51.512;7.504;2022-09-20T12:07:53;16.00;99.90
5415;DHT22;2730;51.512;7.504;2022-09-20T12:10:23;15.80;99.90
5415;DHT22;2730;51.512;7.504;2022-09-20T12:12:56;15.80;99.90
5415;DHT22;2730;51.512;7.504;2022-09-20T12:15:25;15.80;99.90
5415;DHT22;2730;51.512;7.504;2022-09-20T12:18:11;15.90;99.90
5415;DHT22;2730;51.512;7.504;2022-09-20T12:21:06;15.80;99.90
5415;DHT22;2730;51.512;7.504;2022-09-20T12:24:09;15.70;99.90
5415;DHT22;2730;51.512;7.504;2022-09-20T12:26:48;16.00;99.90
5415;DHT22;2730;51.512;7.504;2022-09-20T12:29:52;16.30;99.90
5415;DHT22;2730;51.512;7.504;2022-09-20T12:38:31;16.50;99.90
5415;DHT22;2730;51.512;7.504;2022-09-20T12:41:02;16.20;99.90
5415;DHT22;2730;51.512;7.504;2022-09-20T12:43:31;16.10;99.90
5415;DHT22;2730;51.512;7.504;2022-09-20T12:46:00;16.20;99.90
5415;DHT22;2730;51.512;7.504;2022-09-20T12:48:34;16.30;99.90
5415;DHT22;2730;51.512;7.504;2022-09-20T12:51:03;16.30;99.90
5415;DHT22;2730;51.512;7.504;2022-09-20T12:54:03;16.00;99.90
5415;DHT22;2730;51.512;7.504;2022-09-20T12:56:34;15.60;99.90
5415;DHT22;2730;51.512;7.504;2022-09-20T12:59:02;15.40;99.90
5415;DHT22;2730;51.512;7.504;2022-09-20T13:01:38;15.40;99.90
5415;DHT22;2730;51.512;7.504;2022-09-20T13:07:39;15.30;99.90
5415;DHT22;2730;51.512;7.504;2022-09-20T13:10:25;15.30;99.90
5415;DHT22;2730;51.512;7.504;2022-09-20T13:12:59;15.20;99.90
5415;DHT22;2730;51.512;7.504;2022-09-20T13:15:27;15.20;99.90
5415;DHT22;2730;51.512;7.504;2022-09-20T13:18:00;15.20;99.90
5415;DHT22;2730;51.512;7.504;2022-09-20T13:20:28;15.10;99.90
5415;DHT22;2730;51.512;7.504;2022-09-20T13:22:59;15.00;99.90
5415;DHT22;2730;51.512;7.504;2022-09-20T13:25:27;14.90;99.90
5415;DHT22;2730;51.512;7.504;2022-09-20T13:28:01;14.90;99.90
5415;DHT22;2730;51.512;7.504;2022-09-20T13:30:31;15.10;99.90
5415;DHT22;2730;51.512;7.504;2022-09-20T13:33:15;15.30;99.90
5415;DHT22;2730;51.512;7.504;2022-09-20T13:35:43;15.40;99.90
5415;DHT22;2730;51.512;7.504;2022-09-20T13:38:13;15.40;99.90
5415;DHT22;2730;51.512;7.504;2022-09-20T13:40:47;15.50;99.90
5415;DHT22;2730;51.512;7.504;2022-09-20T13:43:23;15.40;99.90
5415;DHT22;2730;51.512;7.504;2022-09-20T13:45:55;15.40;99.90
5415;DHT22;2730;51.512;7.504;2022-09-20T13:48:25;15.40;99.90
5415;DHT22;2730;51.512;7.504;2022-09-20T13:50:53;15.30;99.90
5415;DHT22;2730;51.512;7.504;2022-09-20T13:53:22;15.30;99.90
5415;DHT22;2730;51.512;7.504;2022-09-20T13:55:49;15.30;99.90
5415;DHT22;2730;51.512;7.504;2022-09-20T13:58:19;15.20;99.90
5415;DHT22;2730;51.512;7.504;2022-09-20T14:00:49;15.10;99.90
5415;DHT22;2730;51.512;7.504;2022-09-20T14:03:17;15.00;99.90
5415;DHT22;2730;51.512;7.504;2022-09-20T14:05:48;15.00;99.90
5415;DHT22;2730;51.512;7.504;2022-09-20T14:08:21;15.00;99.90
5415;DHT22;2730;51.512;7.504;2022-09-20T14:10:49;15.00;99.90
5415;DHT22;2730;51.512;7.504;2022-09-20T14:13:30;15.10;99.90
5415;DHT22;2730;51.512;7.504;2022-09-20T14:15:58;15.30;99.90
5415;DHT22;2730;51.512;7.504;2022-09-20T14:18:26;15.30;99.90
5415;DHT22;2730;51.512;7.504;2022-09-20T14:20:54;15.60;99.90
5415;DHT22;2730;51.512;7.504;2022-09-20T14:23:24;15.60;99.90
5415;DHT22;2730;51.512;7.504;2022-09-20T14:26:05;15.50;99.90
5415;DHT22;2730;51.512;7.504;2022-09-20T14:28:31;15.60;99.90
5415;DHT22;2730;51.512;7.504;2022-09-20T14:31:05;15.60;99.90
5415;DHT22;2730;51.512;7.504;2022-09-20T14:33:39;15.60;99.90
5415;DHT22;2730;51.512;7.504;2022-09-20T14:36:12;15.70;99.90
5415;DHT22;2730;51.512;7.504;2022-09-20T14:38:42;15.60;99.90
5415;DHT22;2730;51.512;7.504;2022-09-20T14:41:10;15.50;99.90
5415;DHT22;2730;51.512;7.504;2022-09-20T14:43:37;15.50;99.90
5415;DHT22;2730;51.512;7.504;2022-09-20T14:46:09;15.50;99.90
5415;DHT22;2730;51.512;7.504;2022-09-20T14:48:38;15.60;99.90
5415;DHT22;2730;51.512;7.504;2022-09-20T14:51:22;15.60;99.90
5415;DHT22;2730;51.512;7.504;2022-09-20T14:53:51;15.70;99.90
5415;DHT22;2730;51.512;7.504;2022-09-20T14:56:31;15.60;99.90
5415;DHT22;2730;51.512;7.504;2022-09-20T14:59:17;15.40;99.90
5415;DHT22;2730;51.512;7.504;2022-09-20T15:01:52;15.30;99.90
5415;DHT22;2730;51.512;7.504;2022-09-20T15:04:22;15.30;99.90
5415;DHT22;2730;51.512;7.504;2022-09-20T15:06:51;15.40;99.90
5415;DHT22;2730;51.512;7.504;2022-09-20T15:09:19;15.40;99.90
5415;DHT22;2730;51.512;7.504;2022-09-20T15:11:58;15.30;99.90
5415;DHT22;2730;51.512;7.504;2022-09-20T15:14:25;15.30;99.90
5415;DHT22;2730;51.512;7.504;2022-09-20T15:16:51;15.30;99.90
5415;DHT22;2730;51.512;7.504;2022-09-20T15:19:18;15.40;99.90
5415;DHT22;2730;51.512;7.504;2022-09-20T15:21:45;15.30;99.90
5415;DHT22;2730;51.512;7.504;2022-09-20T15:24:13;15.30;99.90
5415;DHT22;2730;51.512;7.504;2022-09-20T15:26:42;15.30;99.90
5415;DHT22;2730;51.512;7.504;2022-09-20T15:29:13;15.30;99.90
5415;DHT22;2730;51.512;7.504;2022-09-20T15:31:40;15.30;99.90
5415;DHT22;2730;51.512;7.504;2022-09-20T15:34:06;15.30;99.90
5415;DHT22;2730;51.512;7.504;2022-09-20T15:36:33;15.30;99.90
5415;DHT22;2730;51.512;7.504;2022-09-20T15:39:01;15.20;99.90
5415;DHT22;2730;51.512;7.504;2022-09-20T15:41:29;15.10;99.90
5415;DHT22;2730;51.512;7.504;2022-09-20T15:43:56;15.00;99.90
5415;DHT22;2730;51.512;7.504;2022-09-20T15:46:24;15.00;99.90
5415;DHT22;2730;51.512;7.504;2022-09-20T15:48:52;15.00;99.90
5415;DHT22;2730;51.512;7.504;2022-09-20T15:51:19;15.00;99.90
5415;DHT22;2730;51.512;7.504;2022-09-20T15:53:47;15.00;99.90
5415;DHT22;2730;51.512;7.504;2022-09-20T15:56:22;15.00;99.90
5415;DHT22;2730;51.512;7.504;2022-09-20T15:58:51;15.10;99.90
5415;DHT22;2730;51.512;7.504;2022-09-20T16:03:51;15.00;99.90
5415;DHT22;2730;51.512;7.504;2022-09-20T16:06:18;15.00;99.90
5415;DHT22;2730;51.512;7.504;2022-09-20T16:08:45;15.00;99.90
5415;DHT22;2730;51.512;7.504;2022-09-20T16:11:14;14.90;99.90
5415;DHT22;2730;51.512;7.504;2022-09-20T16:13:41;14.90;99.90
5415;DHT22;2730;51.512;7.504;2022-09-20T16:16:10;14.90;99.90
5415;DHT22;2730;51.512;7.504;2022-09-20T16:18:40;14.90;99.90
5415;DHT22;2730;51.512;7.504;2022-09-20T16:21:25;14.90;99.90
5415;DHT22;2730;51.512;7.504;2022-09-20T16:23:53;14.90;99.90
5415;DHT22;2730;51.512;7.504;2022-09-20T16:26:21;14.90;99.90
5415;DHT22;2730;51.512;7.504;2022-09-20T16:28:48;14.80;99.90
5415;DHT22;2730;51.512;7.504;2022-09-20T16:31:31;14.90;99.90
5415;DHT22;2730;51.512;7.504;2022-09-20T16:33:59;14.90;99.90
5415;DHT22;2730;51.512;7.504;2022-09-20T16:36:26;14.80;99.90
5415;DHT22;2730;51.512;7.504;2022-09-20T16:38:53;14.80;99.90
5415;DHT22;2730;51.512;7.504;2022-09-20T16:41:23;14.80;99.90
5415;DHT22;2730;51.512;7.504;2022-09-20T16:43:51;14.70;99.90
5415;DHT22;2730;51.512;7.504;2022-09-20T16:46:18;14.70;99.90
5415;DHT22;2730;51.512;7.504;2022-09-20T16:48:47;14.70;99.90
5415;DHT22;2730;51.512;7.504;2022-09-20T16:51:14;14.60;99.90
5415;DHT22;2730;51.512;7.504;2022-09-20T16:53:41;14.40;99.90
5415;DHT22;2730;51.512;7.504;2022-09-20T16:56:17;14.30;99.90
5415;DHT22;2730;51.512;7.504;2022-09-20T16:58:44;14.10;99.90
5415;DHT22;2730;51.512;7.504;2022-09-20T17:01:11;13.90;99.90
5415;DHT22;2730;51.512;7.504;2022-09-20T17:03:38;13.90;99.90
5415;DHT22;2730;51.512;7.504;2022-09-20T17:06:08;13.80;99.90
5415;DHT22;2730;51.512;7.504;2022-09-20T17:08:35;13.80;99.90
5415;DHT22;2730;51.512;7.504;2022-09-20T17:11:05;13.70;99.90
5415;DHT22;2730;51.512;7.504;2022-09-20T17:13:33;13.70;99.90
5415;DHT22;2730;51.512;7.504;2022-09-20T17:16:02;13.70;99.90
5415;DHT22;2730;51.512;7.504;2022-09-20T17:18:29;13.50;99.90
5415;DHT22;2730;51.512;7.504;2022-09-20T17:21:02;13.40;99.90
5415;DHT22;2730;51.512;7.504;2022-09-20T17:23:31;13.40;99.90
5415;DHT22;2730;51.512;7.504;2022-09-20T17:26:04;13.40;99.90
5415;DHT22;2730;51.512;7.504;2022-09-20T17:28:35;13.30;99.90
5415;DHT22;2730;51.512;7.504;2022-09-20T17:31:02;13.30;99.90
5415;DHT22;2730;51.512;7.504;2022-09-20T17:33:30;13.20;99.90
5415;DHT22;2730;51.512;7.504;2022-09-20T17:35:58;13.10;99.90
5415;DHT22;2730;51.512;7.504;2022-09-20T17:38:26;13.10;99.90
5415;DHT22;2730;51.512;7.504;2022-09-20T17:41:01;13.10;99.90
5415;DHT22;2730;51.512;7.504;2022-09-20T17:43:28;13.00;99.90
5415;DHT22;2730;51.512;7.504;2022-09-20T17:46:06;13.00;99.90
5415;DHT22;2730;51.512;7.504;2022-09-20T17:48:34;13.00;99.90
5415;DHT22;2730;51.512;7.504;2022-09-20T17:51:01;12.90;99.90
5415;DHT22;2730;51.512;7.504;2022-09-20T17:53:30;12.90;99.90
5415;DHT22;2730;51.512;7.504;2022-09-20T17:55:59;12.80;99.90
5415;DHT22;2730;51.512;7.504;2022-09-20T17:58:27;12.80;99.90
5415;DHT22;2730;51.512;7.504;2022-09-20T18:01:00;12.70;99.90
5415;DHT22;2730;51.512;7.504;2022-09-20T18:03:27;12.60;99.90
5415;DHT22;2730;51.512;7.504;2022-09-20T18:05:54;12.50;99.90
5415;DHT22;2730;51.512;7.504;2022-09-20T18:08:20;12.40;99.90
5415;DHT22;2730;51.512;7.504;2022-09-20T18:10:54;12.40;99.90
5415;DHT22;2730;51.512;7.504;2022-09-20T18:13:24;12.30;99.90
5415;DHT22;2730;51.512;7.504;2022-09-20T18:15:54;12.10;99.90
5415;DHT22;2730;51.512;7.504;2022-09-20T18:18:20;12.00;99.90
5415;DHT22;2730;51.512;7.504;2022-09-20T18:20:47;11.90;99.90
5415;DHT22;2730;51.512;7.504;2022-09-20T18:23:14;11.80;99.90
5415;DHT22;2730;51.512;7.504;2022-09-20T18:25:41;11.70;99.90
5415;DHT22;2730;51.512;7.504;2022-09-20T18:28:27;11.70;99.90
5415;DHT22;2730;51.512;7.504;2022-09-20T18:31:00;11.60;99.90
5415;DHT22;2730;51.512;7.504;2022-09-20T18:33:28;11.50;99.90
5415;DHT22;2730;51.512;7.504;2022-09-20T18:36:03;11.50;99.90
5415;DHT22;2730;51.512;7.504;2022-09-20T18:38:30;11.50;99.90
5415;DHT22;2730;51.512;7.504;2022-09-20T18:40:59;11.40;99.90
5415;DHT22;2730;51.512;7.504;2022-09-20T18:43:28;11.40;99.90
5415;DHT22;2730;51.512;7.504;2022-09-20T18:45:55;11.50;99.90
5415;DHT22;2730;51.512;7.504;2022-09-20T18:48:23;11.40;99.90
5415;DHT22;2730;51.512;7.504;2022-09-20T18:50:58;11.40;99.90
5415;DHT22;2730;51.512;7.504;2022-09-20T18:53:26;11.40;99.90
5415;DHT22;2730;51.512;7.504;2022-09-20T18:55:53;11.40;99.90
5415;DHT22;2730;51.512;7.504;2022-09-20T18:58:22;11.30;99.90
5415;DHT22;2730;51.512;7.504;2022-09-20T19:01:00;11.30;99.90
5415;DHT22;2730;51.512;7.504;2022-09-20T19:03:42;11.30;99.90
5415;DHT22;2730;51.512;7.504;2022-09-20T19:06:14;11.30;99.90
5415;DHT22;2730;51.512;7.504;2022-09-20T19:08:47;11.20;99.90
5415;DHT22;2730;51.512;7.504;2022-09-20T19:11:24;11.30;99.90
5415;DHT22;2730;51.512;7.504;2022-09-20T19:13:55;11.20;99.90
5415;DHT22;2730;51.512;7.504;2022-09-20T19:16:27;11.30;99.90
5415;DHT22;2730;51.512;7.504;2022-09-20T19:19:26;11.30;99.90
5415;DHT22;2730;51.512;7.504;2022-09-20T19:22:05;11.20;99.90
5415;DHT22;2730;51.512;7.504;2022-09-20T19:24:45;11.30;99.90
5415;DHT22;2730;51.512;7.504;2022-09-20T19:27:15;11.30;99.90
5415;DHT22;2730;51.512;7.504;2022-09-20T19:29:42;11.30;99.90
5415;DHT22;2730;51.512;7.504;2022-09-20T19:32:15;11.30;99.90
5415;DHT22;2730;51.512;7.504;2022-09-20T19:34:49;11.30;99.90
5415;DHT22;2730;51.512;7.504;2022-09-20T19:37:26;11.30;99.90
5415;DHT22;2730;51.512;7.504;2022-09-20T19:40:07;11.30;99.90
5415;DHT22;2730;51.512;7.504;2022-09-20T19:42:45;11.30;99.90
5415;DHT22;2730;51.512;7.504;2022-09-20T19:45:23;11.40;99.90
5415;DHT22;2730;51.512;7.504;2022-09-20T19:48:01;11.40;99.90
5415;DHT22;2730;51.512;7.504;2022-09-20T19:50:33;11.40;99.90
5415;DHT22;2730;51.512;7.504;2022-09-20T19:53:01;11.40;99.90
5415;DHT22;2730;51.512;7.504;2022-09-20T19:55:29;11.50;99.90
5415;DHT22;2730;51.512;7.504;2022-09-20T19:57:57;11.50;99.90
5415;DHT22;2730;51.512;7.504;2022-09-20T20:00:24;11.50;99.90
5415;DHT22;2730;51.512;7.504;2022-09-20T20:02:51;11.50;99.90
5415;DHT22;2730;51.512;7.504;2022-09-20T20:05:22;11.50;99.90
5415;DHT22;2730;51.512;7.504;2022-09-20T20:07:58;11.40;99.90
5415;DHT22;2730;51.512;7.504;2022-09-20T20:10:33;11.40;99.90
5415;DHT22;2730;51.512;7.504;2022-09-20T20:13:08;11.30;99.90
5415;DHT22;2730;51.512;7.504;2022-09-20T20:16:00;11.20;99.90
5415;DHT22;2730;51.512;7.504;2022-09-20T20:18:35;11.20;99.90
5415;DHT22;2730;51.512;7.504;2022-09-20T20:21:11;11.10;99.90
5415;DHT22;2730;51.512;7.504;2022-09-20T20:24:01;11.00;99.90
5415;DHT22;2730;51.512;7.504;2022-09-20T20:26:33;11.00;99.90
5415;DHT22;2730;51.512;7.504;2022-09-20T20:29:00;10.90;99.90
5415;DHT22;2730;51.512;7.504;2022-09-20T20:31:27;10.90;99.90
5415;DHT22;2730;51.512;7.504;2022-09-20T20:33:54;10.80;99.90
5415;DHT22;2730;51.512;7.504;2022-09-20T20:36:22;10.70;99.90
5415;DHT22;2730;51.512;7.504;2022-09-20T20:38:49;10.70;99.90
5415;DHT22;2730;51.512;7.504;2022-09-20T20:41:19;10.60;99.90
5415;DHT22;2730;51.512;7.504;2022-09-20T20:43:46;10.50;99.90
5415;DHT22;2730;51.512;7.504;2022-09-20T20:46:15;10.50;99.90
5415;DHT22;2730;51.512;7.504;2022-09-20T20:48:43;10.50;99.90
5415;DHT22;2730;51.512;7.504;2022-09-20T20:51:11;10.50;99.90
5415;DHT22;2730;51.512;7.504;2022-09-20T20:53:41;10.40;99.90
5415;DHT22;2730;51.512;7.504;2022-09-20T20:56:11;10.40;99.90
5415;DHT22;2730;51.512;7.504;2022-09-20T20:58:40;10.30;99.90
5415;DHT22;2730;51.512;7.504;2022-09-20T21:01:09;10.30;99.90
5415;DHT22;2730;51.512;7.504;2022-09-20T21:03:37;10.20;99.90
5415;DHT22;2730;51.512;7.504;2022-09-20T21:06:04;10.30;99.90
5415;DHT22;2730;51.512;7.504;2022-09-20T21:08:33;10.20;99.90
5415;DHT22;2730;51.512;7.504;2022-09-20T21:11:04;10.20;99.90
5415;DHT22;2730;51.512;7.504;2022-09-20T21:13:31;10.20;99.90
5415;DHT22;2730;51.512;7.504;2022-09-20T21:16:04;10.10;99.90
5415;DHT22;2730;51.512;7.504;2022-09-20T21:18:31;10.10;99.90
5415;DHT22;2730;51.512;7.504;2022-09-20T21:20:58;10.10;99.90
5415;DHT22;2730;51.512;7.504;2022-09-20T21:23:25;10.00;99.90
5415;DHT22;2730;51.512;7.504;2022-09-20T21:26:04;10.00;99.90
5415;DHT22;2730;51.512;7.504;2022-09-20T21:28:34;9.90;99.90
5415;DHT22;2730;51.512;7.504;2022-09-20T21:31:02;10.00;99.90
5415;DHT22;2730;51.512;7.504;2022-09-20T21:33:31;9.90;99.90
5415;DHT22;2730;51.512;7.504;2022-09-20T21:35:58;9.80;99.90
5415;DHT22;2730;51.512;7.504;2022-09-20T21:38:25;9.80;99.90
5415;DHT22;2730;51.512;7.504;2022-09-20T21:41:02;9.80;99.90
5415;DHT22;2730;51.512;7.504;2022-09-20T21:43:29;9.70;99.90
5415;DHT22;2730;51.512;7.504;2022-09-20T21:45:56;9.60;99.90
5415;DHT22;2730;51.512;7.504;2022-09-20T21:48:24;9.60;99.90
5415;DHT22;2730;51.512;7.504;2022-09-20T21:50:51;9.60;99.90
5415;DHT22;2730;51.512;7.504;2022-09-20T21:53:18;9.60;99.90
5415;DHT22;2730;51.512;7.504;2022-09-20T21:55:45;9.50;99.90
5415;DHT22;2730;51.512;7.504;2022-09-20T21:58:13;9.50;99.90
5415;DHT22;2730;51.512;7.504;2022-09-20T22:00:40;9.40;99.90
5415;DHT22;2730;51.512;7.504;2022-09-20T22:03:07;9.40;99.90
5415;DHT22;2730;51.512;7.504;2022-09-20T22:05:37;9.30;99.90
5415;DHT22;2730;51.512;7.504;2022-09-20T22:08:04;9.30;99.90
5415;DHT22;2730;51.512;7.504;2022-09-20T22:10:32;9.30;99.90
5415;DHT22;2730;51.512;7.504;2022-09-20T22:13:00;9.30;99.90
5415;DHT22;2730;51.512;7.504;2022-09-20T22:15:29;9.30;99.90